createdAt,value
2022-08-30T00:03:47.893Z,18.09
2022-08-30T00:08:52.291Z,18.03
2022-08-30T00:13:58.387Z,18.05
2022-08-30T00:19:02.771Z,18.06
2022-08-30T00:24:06.981Z,18.14
2022-08-30T00:29:10.732Z,18.21
2022-08-30T00:34:17.009Z,18.21
2022-08-30T00:39:20.836Z,18.19
2022-08-30T00:44:24.659Z,18.20
2022-08-30T00:49:30.464Z,18.17
2022-08-30T00:54:37.032Z,18.17
2022-08-30T00:59:44.897Z,18.16
2022-08-30T01:04:51.717Z,18.17
2022-08-30T01:09:55.887Z,18.16
2022-08-30T01:15:00.019Z,18.18
2022-08-30T01:20:37.195Z,18.16
2022-08-30T01:25:44.700Z,18.14
2022-08-30T01:30:49.111Z,18.14
2022-08-30T01:36:04.379Z,18.07
2022-08-30T01:41:21.264Z,18.06
2022-08-30T01:46:29.664Z,18.08
2022-08-30T01:51:33.655Z,18.10
2022-08-30T01:56:37.542Z,18.07
2022-08-30T02:01:42.614Z,18.08
2022-08-30T02:06:46.625Z,18.07
2022-08-30T02:11:50.702Z,18.04
2022-08-30T02:16:54.314Z,18.03
2022-08-30T02:21:58.337Z,18.01
2022-08-30T02:27:02.143Z,17.99
2022-08-30T02:32:06.354Z,17.95
2022-08-30T02:37:10.057Z,17.93
2022-08-30T02:42:13.693Z,17.97
2022-08-30T02:47:17.415Z,18.04
2022-08-30T02:52:22.622Z,18.02
2022-08-30T02:57:32.129Z,17.99
2022-08-30T03:02:36.155Z,17.96
2022-08-30T03:07:42.335Z,17.95
2022-08-30T03:12:48.301Z,17.96
2022-08-30T03:17:54.297Z,17.90
2022-08-30T03:22:58.356Z,17.83
2022-08-30T03:28:03.563Z,17.79
2022-08-30T03:33:07.494Z,17.78
2022-08-30T03:38:12.124Z,17.75
2022-08-30T03:43:16.187Z,17.71
2022-08-30T03:48:19.887Z,17.67
2022-08-30T03:53:26.986Z,17.64
2022-08-30T03:58:31.012Z,17.59
2022-08-30T04:03:34.929Z,17.55
2022-08-30T04:08:39.405Z,17.51
2022-08-30T04:13:44.128Z,17.54
2022-08-30T04:18:47.842Z,17.53
2022-08-30T04:23:51.475Z,17.55
2022-08-30T04:28:56.759Z,17.61
2022-08-30T04:34:00.433Z,17.64
2022-08-30T04:39:04.918Z,17.63
2022-08-30T04:44:08.721Z,17.63
2022-08-30T04:49:18.163Z,17.62
2022-08-30T04:54:22.528Z,17.64
2022-08-30T04:59:27.134Z,17.65
2022-08-30T05:04:30.762Z,17.66
2022-08-30T05:09:34.305Z,17.68
2022-08-30T05:14:37.888Z,17.73
2022-08-30T05:19:41.600Z,17.76
2022-08-30T05:24:45.229Z,17.86
2022-08-30T05:29:48.950Z,17.90
2022-08-30T05:34:52.574Z,17.80
2022-08-30T05:39:57.033Z,17.78
2022-08-30T05:45:01.133Z,17.74
2022-08-30T05:50:07.741Z,17.69
2022-08-30T05:55:13.119Z,17.65
2022-08-30T06:00:19.495Z,17.66
2022-08-30T06:05:23.515Z,17.71
2022-08-30T06:10:27.116Z,17.66
2022-08-30T06:15:30.726Z,17.59
2022-08-30T06:20:35.986Z,17.52
2022-08-30T06:25:42.136Z,17.48
2022-08-30T06:30:46.102Z,17.54
2022-08-30T06:35:58.413Z,17.60
2022-08-30T06:41:13.517Z,17.64
2022-08-30T06:46:34.580Z,17.76
2022-08-30T06:51:40.149Z,17.83
2022-08-30T06:57:00.115Z,17.89
2022-08-30T07:02:04.514Z,17.92
2022-08-30T07:07:11.693Z,17.98
2022-08-30T07:12:16.174Z,18.05
2022-08-30T07:17:38.431Z,17.98
2022-08-30T07:22:42.631Z,18.01
2022-08-30T07:27:46.382Z,17.96
2022-08-30T07:32:50.105Z,17.95
2022-08-30T07:37:54.040Z,18.01
2022-08-30T07:42:57.720Z,18.11
2022-08-30T07:48:01.485Z,18.24
2022-08-30T07:53:08.015Z,18.53
2022-08-30T07:58:15.471Z,18.63
2022-08-30T08:03:19.809Z,18.58
2022-08-30T08:08:24.041Z,18.63
2022-08-30T08:13:28.586Z,18.59
2022-08-30T08:18:36.517Z,18.58
2022-08-30T08:23:40.323Z,18.52
2022-08-30T08:28:46.793Z,18.24
2022-08-30T08:33:50.474Z,17.93
2022-08-30T08:38:54.659Z,17.70
2022-08-30T08:43:59.747Z,17.64
2022-08-30T08:49:07.919Z,17.67
2022-08-30T08:54:24.660Z,17.67
2022-08-30T08:59:28.669Z,17.75
2022-08-30T09:04:38.825Z,17.85
2022-08-30T09:09:44.230Z,17.81
2022-08-30T09:14:55.633Z,17.92
2022-08-30T09:20:01.617Z,18.05
2022-08-30T09:25:13.611Z,18.31
2022-08-30T09:30:19.692Z,18.52
2022-08-30T09:35:41.329Z,18.49
2022-08-30T09:41:00.308Z,18.34
2022-08-30T09:46:04.573Z,18.41
2022-08-30T09:51:11.550Z,18.67
2022-08-30T09:57:03.284Z,18.64
2022-08-30T10:02:58.412Z,18.73
2022-08-30T10:08:06.742Z,18.72
2022-08-30T10:13:23.162Z,18.68
2022-08-30T10:18:47.774Z,18.47
2022-08-30T10:24:01.433Z,18.52
2022-08-30T10:29:19.793Z,18.57
2022-08-30T10:35:10.005Z,18.44
2022-08-30T10:40:50.595Z,18.36
2022-08-30T10:46:00.965Z,18.47
2022-08-30T10:51:26.290Z,18.60
2022-08-30T10:56:30.609Z,18.72
2022-08-30T11:01:52.507Z,18.90
2022-08-30T11:07:24.047Z,19.05
2022-08-30T11:12:28.482Z,18.89
2022-08-30T11:17:44.394Z,18.77
2022-08-30T11:23:34.345Z,18.83
2022-08-30T11:28:37.810Z,18.92
2022-08-30T11:33:46.439Z,18.81
2022-08-30T11:38:51.000Z,18.73
2022-08-30T11:43:56.451Z,18.62
2022-08-30T11:49:20.138Z,18.53
2022-08-30T11:55:01.177Z,18.49
2022-08-30T12:00:34.315Z,18.42
2022-08-30T12:05:41.549Z,18.39
2022-08-30T12:10:56.303Z,18.41
2022-08-30T12:16:13.320Z,18.52
2022-08-30T12:21:21.382Z,18.70
2022-08-30T12:26:25.614Z,18.68
2022-08-30T12:31:29.147Z,18.77
2022-08-30T12:37:09.511Z,18.80
2022-08-30T12:42:34.225Z,18.78
2022-08-30T12:47:45.449Z,18.74
2022-08-30T12:53:02.966Z,18.67
2022-08-30T12:58:10.855Z,18.58
2022-08-30T13:03:24.458Z,18.55
2022-08-30T13:08:45.974Z,18.52
2022-08-30T13:13:58.721Z,18.52
2022-08-30T13:19:36.934Z,18.48
2022-08-30T13:24:40.660Z,18.38
2022-08-30T13:29:45.506Z,18.41
2022-08-30T13:34:49.328Z,18.57
2022-08-30T13:39:53.162Z,18.60
2022-08-30T13:44:56.668Z,18.64
2022-08-30T13:50:00.439Z,18.85
2022-08-30T13:55:05.784Z,18.95
2022-08-30T14:00:19.831Z,18.89
2022-08-30T14:05:49.391Z,18.85
2022-08-30T14:10:54.598Z,18.76
2022-08-30T14:21:27.945Z,18.78
2022-08-30T14:26:45.979Z,18.92
2022-08-30T14:31:50.622Z,19.00
2022-08-30T14:36:55.902Z,19.03
2022-08-30T14:42:04.389Z,19.12
2022-08-30T14:47:11.221Z,19.25
2022-08-30T14:52:14.848Z,19.33
2022-08-30T14:57:18.791Z,19.46
2022-08-30T15:02:26.934Z,19.49
2022-08-30T15:07:30.889Z,19.37
2022-08-30T15:12:34.830Z,19.23
2022-08-30T15:17:38.487Z,19.23
2022-08-30T15:22:42.320Z,19.18
2022-08-30T15:27:50.410Z,19.10
2022-08-30T15:32:55.399Z,19.06
2022-08-30T15:37:59.090Z,19.02
2022-08-30T15:43:06.265Z,18.95
2022-08-30T15:48:09.794Z,18.93
2022-08-30T15:53:13.640Z,18.96
2022-08-30T15:58:17.377Z,18.98
2022-08-30T16:03:21.277Z,18.98
2022-08-30T16:08:25.611Z,18.97
2022-08-30T16:13:29.514Z,18.94
2022-08-30T16:18:35.039Z,18.90
2022-08-30T16:23:43.060Z,18.89
2022-08-30T16:28:48.912Z,18.85
2022-08-30T16:33:53.447Z,18.79
2022-08-30T16:38:58.583Z,18.76
2022-08-30T16:44:03.812Z,18.74
2022-08-30T16:49:10.564Z,18.73
2022-08-30T16:54:14.563Z,18.71
2022-08-30T16:59:19.003Z,18.70
2022-08-30T17:04:22.824Z,18.68
2022-08-30T17:09:26.744Z,18.61
2022-08-30T17:14:30.473Z,18.61
2022-08-30T17:19:41.097Z,18.61
2022-08-30T17:24:46.844Z,18.64
2022-08-30T17:29:50.743Z,18.59
2022-08-30T17:34:54.368Z,18.44
2022-08-30T17:40:00.648Z,18.26
2022-08-30T17:45:08.232Z,18.12
2022-08-30T17:50:14.653Z,17.99
2022-08-30T17:55:18.569Z,17.85
2022-08-30T18:00:22.487Z,17.76
2022-08-30T18:05:26.455Z,17.67
2022-08-30T18:10:33.103Z,17.60
2022-08-30T18:15:38.517Z,17.52
2022-08-30T18:20:48.235Z,17.45
2022-08-30T18:26:02.177Z,17.42
2022-08-30T18:31:06.655Z,17.47
2022-08-30T18:36:13.737Z,17.45
2022-08-30T18:41:17.657Z,17.35
2022-08-30T18:46:21.379Z,17.26
2022-08-30T18:51:25.716Z,17.24
2022-08-30T18:56:33.260Z,17.26
2022-08-30T19:01:37.796Z,17.34
2022-08-30T19:06:43.377Z,17.37
2022-08-30T19:11:46.956Z,17.34
2022-08-30T19:16:51.076Z,17.26
2022-08-30T19:21:54.802Z,17.23
2022-08-30T19:26:58.420Z,17.22
2022-08-30T19:32:02.140Z,17.23
2022-08-30T19:37:06.986Z,17.28
2022-08-30T19:42:11.936Z,17.30
2022-08-30T19:47:15.433Z,17.31
2022-08-30T19:52:19.532Z,17.35
2022-08-30T19:57:24.757Z,17.37
2022-08-30T20:02:29.010Z,17.34
2022-08-30T20:07:35.867Z,17.38
2022-08-30T20:12:45.557Z,17.45
2022-08-30T20:18:05.164Z,17.45
2022-08-30T20:23:10.370Z,17.39
2022-08-30T20:28:18.516Z,17.39
2022-08-30T20:33:25.337Z,17.43
2022-08-30T20:38:29.222Z,17.36
2022-08-30T20:43:32.823Z,17.35
2022-08-30T20:48:37.195Z,17.37
2022-08-30T20:53:41.100Z,17.34
2022-08-30T20:58:46.157Z,17.27
2022-08-30T21:03:50.086Z,17.21
2022-08-30T21:08:54.149Z,17.21
2022-08-30T21:13:58.195Z,17.18
2022-08-30T21:19:03.602Z,17.12
2022-08-30T21:24:10.537Z,17.11
2022-08-30T21:29:15.443Z,17.06
2022-08-30T21:34:19.006Z,16.89
2022-08-30T21:39:27.287Z,16.75
2022-08-30T21:44:30.895Z,16.67
2022-08-30T21:49:35.305Z,16.62
2022-08-30T21:54:39.888Z,16.59
2022-08-30T21:59:45.144Z,16.57
2022-08-30T22:04:48.760Z,16.55
2022-08-30T22:09:52.377Z,16.45
2022-08-30T22:14:55.968Z,16.27
2022-08-30T22:19:59.515Z,16.18
2022-08-30T22:25:03.199Z,16.18
2022-08-30T22:30:07.779Z,16.20
2022-08-30T22:35:11.992Z,16.23
2022-08-30T22:40:16.081Z,16.23
2022-08-30T22:45:20.165Z,16.22
2022-08-30T22:50:23.785Z,16.16
2022-08-30T22:55:28.581Z,16.12
2022-08-30T23:00:32.266Z,16.16
2022-08-30T23:05:36.791Z,16.15
2022-08-30T23:10:40.410Z,16.18
2022-08-30T23:15:44.130Z,16.13
2022-08-30T23:20:47.858Z,16.07
2022-08-30T23:26:10.215Z,15.94
2022-08-30T23:31:36.448Z,15.78
2022-08-30T23:36:58.921Z,15.76
2022-08-30T23:42:20.963Z,15.75
2022-08-30T23:47:43.330Z,15.68
2022-08-30T23:53:05.684Z,15.58
2022-08-30T23:58:28.452Z,15.46
